Time;durP1;ratioP1;P1;durP2;ratioP2;P2;SDS_P1;SDS_P2;PMS_P1;PMS_P2;Temp;Humidity;BMP_temperature;BMP_pressure;BME280_temperature;BME280_humidity;BME280_pressure;Samples;Min_cycle;Max_cycle;Signal;HPM_P1;HPM_P2
2021/04/18 00:02:15;;;;;;;7.17;4.53;;;8.40;99.90;;;;;;5059600;28;20433;-70
2021/04/18 00:05:00;;;;;;;8.70;4.30;;;8.50;99.90;;;;;;5062719;28;20494;-71
2021/04/18 00:07:45;;;;;;;7.20;4.00;;;8.60;99.90;;;;;;5054435;28;20442;-69
2021/04/18 00:10:31;;;;;;;6.73;4.10;;;8.70;99.90;;;;;;5064556;28;20456;-70
2021/04/18 00:13:18;;;;;;;11.63;3.83;;;8.60;99.90;;;;;;5064857;28;20559;-70
2021/04/18 00:16:04;;;;;;;6.27;3.27;;;8.50;99.90;;;;;;5055918;28;20790;-72
2021/04/18 00:18:49;;;;;;;6.77;3.40;;;8.50;99.90;;;;;;5054905;28;20983;-71
2021/04/18 00:21:35;;;;;;;7.20;3.50;;;8.40;99.90;;;;;;5059894;28;20467;-71
2021/04/18 00:24:20;;;;;;;5.60;3.37;;;8.40;99.90;;;;;;5059917;28;20494;-71
2021/04/18 00:27:06;;;;;;;6.30;3.40;;;8.40;99.90;;;;;;5063897;28;20462;-71
2021/04/18 00:29:52;;;;;;;5.97;3.77;;;8.40;99.90;;;;;;5066795;28;20443;-70
2021/04/18 00:32:38;;;;;;;5.53;2.80;;;8.60;99.90;;;;;;5061849;28;20466;-70
2021/04/18 00:35:23;;;;;;;8.83;4.20;;;8.60;99.90;;;;;;5053184;28;20818;-71
2021/04/18 00:38:08;;;;;;;6.80;3.50;;;8.60;99.90;;;;;;5055982;28;20433;-70
2021/04/18 00:40:53;;;;;;;7.23;3.70;;;8.70;99.90;;;;;;5062452;28;21176;-72
2021/04/18 00:43:41;;;;;;;6.37;4.80;;;8.70;99.90;;;;;;5057621;28;20508;-72
2021/04/18 00:46:27;;;;;;;4.00;3.10;;;8.70;99.90;;;;;;5063579;28;20447;-71
2021/04/18 00:49:12;;;;;;;3.97;2.87;;;8.70;99.90;;;;;;5061122;28;20552;-71
2021/04/18 00:51:58;;;;;;;5.57;3.53;;;8.50;99.90;;;;;;5063293;28;21010;-72
2021/04/18 00:54:43;;;;;;;7.80;3.63;;;8.40;99.90;;;;;;5054854;28;20445;-71
2021/04/18 00:57:28;;;;;;;5.47;3.77;;;8.30;99.90;;;;;;5055337;28;21275;-71
2021/04/18 01:00:14;;;;;;;8.03;3.93;;;8.30;99.90;;;;;;5061899;28;20492;-71
2021/04/18 01:03:01;;;;;;;9.93;4.20;;;8.20;99.90;;;;;;5062175;28;20534;-70
2021/04/18 01:05:46;;;;;;;7.73;3.97;;;8.10;99.90;;;;;;5060548;28;20568;-71
2021/04/18 01:08:31;;;;;;;6.87;3.83;;;8.10;99.90;;;;;;5056457;28;21308;-72
2021/04/18 01:11:16;;;;;;;6.90;3.43;;;8.20;99.90;;;;;;5061931;28;20601;-71
2021/04/18 01:14:01;;;;;;;5.90;3.87;;;8.10;99.90;;;;;;5055676;28;20674;-72
2021/04/18 01:16:46;;;;;;;6.50;3.90;;;8.20;99.90;;;;;;5060002;28;20421;-71
2021/04/18 01:19:32;;;;;;;14.70;3.10;;;8.30;99.90;;;;;;5056119;28;20472;-71
2021/04/18 01:22:18;;;;;;;5.03;3.20;;;8.40;99.90;;;;;;5064131;28;20465;-70
2021/04/18 01:25:04;;;;;;;8.97;3.93;;;8.40;99.90;;;;;;5067513;28;20441;-72
2021/04/18 01:27:50;;;;;;;7.17;3.80;;;8.30;99.90;;;;;;5055613;28;20453;-70
2021/04/18 01:30:36;;;;;;;9.30;4.13;;;8.30;99.90;;;;;;5060903;28;20446;-71
2021/04/18 01:33:21;;;;;;;6.40;3.53;;;8.30;99.90;;;;;;5063530;28;20475;-70
2021/04/18 01:36:09;;;;;;;9.33;3.10;;;8.10;99.90;;;;;;5064375;28;20450;-72
2021/04/18 01:38:55;;;;;;;6.53;3.73;;;8.00;99.90;;;;;;5055110;28;20952;-72
2021/04/18 01:41:42;;;;;;;9.17;4.00;;;8.10;99.90;;;;;;5065337;28;20441;-71
2021/04/18 01:44:28;;;;;;;6.37;3.60;;;8.20;99.90;;;;;;5067295;28;20962;-72
2021/04/18 01:47:13;;;;;;;7.70;4.43;;;8.20;99.90;;;;;;5063529;28;21068;-70
2021/04/18 01:49:58;;;;;;;8.23;4.17;;;8.20;99.90;;;;;;5060504;28;20428;-71
2021/04/18 01:52:43;;;;;;;5.77;3.33;;;8.10;99.90;;;;;;5066436;28;20788;-71
2021/04/18 01:55:29;;;;;;;5.10;3.70;;;8.00;99.90;;;;;;5063107;28;20490;-70
2021/04/18 01:58:14;;;;;;;7.20;4.10;;;7.80;99.90;;;;;;5063783;28;20509;-71
2021/04/18 02:00:59;;;;;;;10.70;4.70;;;7.90;99.90;;;;;;5068303;28;20449;-72
2021/04/18 02:03:44;;;;;;;5.87;3.37;;;7.80;99.90;;;;;;5065262;28;20544;-72
2021/04/18 02:06:30;;;;;;;7.70;3.93;;;7.80;99.90;;;;;;5065526;28;20456;-71
2021/04/18 02:09:15;;;;;;;5.97;3.90;;;7.90;99.90;;;;;;5064409;28;20499;-72
2021/04/18 02:12:03;;;;;;;11.70;4.27;;;8.00;99.90;;;;;;5059553;28;20812;-70
2021/04/18 02:14:48;;;;;;;5.70;3.63;;;8.00;99.90;;;;;;5056697;28;20453;-71
2021/04/18 02:17:33;;;;;;;10.03;3.83;;;7.90;99.90;;;;;;5060457;28;20534;-72
2021/04/18 02:20:18;;;;;;;5.63;3.13;;;7.80;99.90;;;;;;5066492;28;20474;-72
2021/04/18 02:23:03;;;;;;;7.33;4.13;;;7.80;99.90;;;;;;5062311;28;20440;-72
2021/04/18 02:25:48;;;;;;;8.73;4.17;;;7.80;99.90;;;;;;5058165;28;20494;-72
2021/04/18 02:28:34;;;;;;;7.80;3.83;;;7.80;99.90;;;;;;5059304;28;20528;-72
2021/04/18 02:31:19;;;;;;;9.97;5.93;;;7.70;99.90;;;;;;5063398;28;20463;-72
2021/04/18 02:34:04;;;;;;;8.80;4.47;;;7.70;99.90;;;;;;5060014;28;20436;-71
2021/04/18 02:36:49;;;;;;;8.07;4.57;;;7.80;99.90;;;;;;5059040;28;20830;-71
2021/04/18 02:39:34;;;;;;;7.83;4.33;;;7.90;99.90;;;;;;5060384;28;20459;-70
2021/04/18 02:42:20;;;;;;;5.50;3.90;;;7.90;99.90;;;;;;5068972;28;20454;-71
2021/04/18 02:45:08;;;;;;;6.10;4.60;;;7.80;99.90;;;;;;5061266;28;20466;-72
2021/04/18 02:47:53;;;;;;;7.70;4.33;;;7.80;99.90;;;;;;5059522;28;20452;-71
2021/04/18 02:50:38;;;;;;;8.20;4.10;;;7.80;99.90;;;;;;5066771;28;20901;-71
2021/04/18 02:53:23;;;;;;;7.23;4.07;;;7.80;99.90;;;;;;5064603;28;20488;-71
2021/04/18 02:56:08;;;;;;;10.67;4.50;;;7.70;99.90;;;;;;5063993;28;20453;-72
2021/04/18 02:58:53;;;;;;;10.17;4.63;;;7.60;99.90;;;;;;5060109;28;20457;-71
2021/04/18 03:01:39;;;;;;;5.10;3.97;;;7.40;99.90;;;;;;5063284;28;20442;-71
2021/04/18 03:04:24;;;;;;;8.10;4.27;;;7.30;99.90;;;;;;5055745;28;20453;-71
2021/04/18 03:07:10;;;;;;;7.93;4.20;;;7.30;99.90;;;;;;5062555;28;20454;-71
2021/04/18 03:09:55;;;;;;;5.73;4.50;;;7.40;99.90;;;;;;5059322;28;20524;-72
2021/04/18 03:12:40;;;;;;;6.80;4.53;;;7.50;99.90;;;;;;5065568;28;20450;-72
2021/04/18 03:15:25;;;;;;;7.37;4.73;;;7.70;99.90;;;;;;5063639;28;20445;-72
2021/04/18 03:18:11;;;;;;;7.60;5.10;;;7.70;99.90;;;;;;5061024;28;20417;-71
2021/04/18 03:20:56;;;;;;;5.97;4.80;;;7.80;99.90;;;;;;5064064;28;20428;-71
2021/04/18 03:23:42;;;;;;;10.17;4.60;;;7.80;99.90;;;;;;5063026;28;20463;-72
2021/04/18 03:26:27;;;;;;;5.60;4.30;;;8.00;99.90;;;;;;5063756;28;20497;-71
2021/04/18 03:29:12;;;;;;;7.30;4.80;;;7.90;99.90;;;;;;5061428;28;20533;-71
2021/04/18 03:31:57;;;;;;;6.60;4.97;;;7.80;99.90;;;;;;5061898;28;20875;-72
2021/04/18 03:34:43;;;;;;;9.90;5.00;;;7.80;99.90;;;;;;5063129;28;20483;-72
2021/04/18 03:37:28;;;;;;;6.30;4.40;;;7.70;99.90;;;;;;5063855;28;20478;-72
2021/04/18 03:40:14;;;;;;;11.17;6.60;;;7.70;99.90;;;;;;5063460;28;20506;-71
2021/04/18 03:42:59;;;;;;;9.13;5.27;;;7.80;99.90;;;;;;5063826;28;20522;-71
2021/04/18 03:45:44;;;;;;;8.20;4.80;;;7.80;99.90;;;;;;5057205;28;20495;-72
2021/04/18 03:48:29;;;;;;;9.00;4.60;;;7.80;99.90;;;;;;5061964;28;20633;-71
2021/04/18 03:51:15;;;;;;;8.70;4.50;;;7.80;99.90;;;;;;5059275;28;20513;-71
2021/04/18 03:54:00;;;;;;;5.23;3.90;;;7.70;99.90;;;;;;5062065;28;20470;-72
2021/04/18 03:56:46;;;;;;;8.47;5.20;;;7.80;99.90;;;;;;5060512;28;20872;-69
2021/04/18 03:59:31;;;;;;;7.27;4.87;;;7.90;99.90;;;;;;5057601;28;20430;-73
2021/04/18 04:02:16;;;;;;;6.73;4.20;;;7.70;99.90;;;;;;5068385;28;20494;-71
2021/04/18 04:05:01;;;;;;;10.93;6.60;;;7.60;99.90;;;;;;5064595;28;20478;-72
2021/04/18 04:07:47;;;;;;;7.40;4.90;;;7.70;99.90;;;;;;5063791;28;20510;-70
2021/04/18 04:10:32;;;;;;;6.30;4.63;;;7.70;99.90;;;;;;5060464;28;21121;-72
2021/04/18 04:13:17;;;;;;;9.43;4.20;;;7.80;99.90;;;;;;5062910;28;20444;-72
2021/04/18 04:16:02;;;;;;;6.90;4.57;;;7.90;99.90;;;;;;5063912;28;20446;-71
2021/04/18 04:18:47;;;;;;;7.80;4.93;;;7.90;99.90;;;;;;5058967;28;20447;-71
2021/04/18 04:21:33;;;;;;;6.80;4.97;;;7.90;99.90;;;;;;5057225;28;21247;-71
2021/04/18 04:24:19;;;;;;;10.50;4.67;;;7.90;99.90;;;;;;5059796;28;20513;-72
2021/04/18 04:27:05;;;;;;;9.60;4.70;;;7.80;99.90;;;;;;5058411;28;20441;-72
2021/04/18 04:29:50;;;;;;;10.10;5.27;;;7.70;99.90;;;;;;5065253;28;20552;-72
2021/04/18 04:32:36;;;;;;;6.97;5.00;;;7.30;99.90;;;;;;5059412;28;20439;-72
2021/04/18 04:35:21;;;;;;;12.13;5.70;;;7.40;99.90;;;;;;5065090;28;20462;-70
2021/04/18 04:38:06;;;;;;;9.90;5.77;;;7.40;99.90;;;;;;5065014;28;20441;-70
2021/04/18 04:40:52;;;;;;;8.23;5.30;;;7.40;99.90;;;;;;5063278;28;21094;-71
2021/04/18 04:43:37;;;;;;;9.17;5.47;;;7.50;99.90;;;;;;5068014;28;20421;-71
2021/04/18 04:46:23;;;;;;;8.07;5.03;;;7.50;99.90;;;;;;5058269;28;20950;-71
2021/04/18 04:49:08;;;;;;;8.30;4.90;;;7.60;99.90;;;;;;5059159;28;20460;-71
2021/04/18 04:51:53;;;;;;;9.57;5.30;;;7.50;99.90;;;;;;5059326;28;20417;-71
2021/04/18 04:54:38;;;;;;;9.23;5.50;;;7.40;99.90;;;;;;5057896;28;21007;-69
2021/04/18 04:57:24;;;;;;;14.53;5.43;;;7.40;99.90;;;;;;5054958;28;20497;-69
2021/04/18 05:00:10;;;;;;;10.33;5.00;;;7.30;99.90;;;;;;5064631;28;20491;-70
2021/04/18 05:02:55;;;;;;;13.17;5.83;;;7.30;99.90;;;;;;5064038;28;20446;-72
2021/04/18 05:05:41;;;;;;;10.43;5.53;;;7.40;99.90;;;;;;5057255;28;21046;-71
2021/04/18 05:08:25;;;;;;;6.83;5.43;;;7.50;99.90;;;;;;5061363;28;20516;-71
2021/04/18 05:11:11;;;;;;;9.00;4.70;;;7.50;99.90;;;;;;5064314;28;20436;-71
2021/04/18 05:13:56;;;;;;;15.20;5.67;;;7.60;99.90;;;;;;5062069;28;21095;-72
2021/04/18 05:16:41;;;;;;;10.83;5.17;;;7.70;99.90;;;;;;5064356;28;20457;-71
2021/04/18 05:19:27;;;;;;;8.83;5.80;;;7.80;99.90;;;;;;5066686;28;20425;-71
2021/04/18 05:22:12;;;;;;;8.53;5.17;;;7.90;99.90;;;;;;5062020;28;20443;-71
2021/04/18 05:24:57;;;;;;;8.13;4.90;;;7.90;99.90;;;;;;5060005;28;20453;-70
2021/04/18 05:27:42;;;;;;;7.80;5.17;;;8.00;99.90;;;;;;5059710;28;21054;-72
2021/04/18 05:30:29;;;;;;;10.50;5.60;;;8.00;99.90;;;;;;5063691;28;20623;-72
2021/04/18 05:33:14;;;;;;;7.27;4.43;;;8.10;99.90;;;;;;5062490;28;20489;-72
2021/04/18 05:35:59;;;;;;;8.67;5.67;;;8.10;99.90;;;;;;5060337;28;20447;-72
2021/04/18 05:38:44;;;;;;;6.93;5.10;;;8.00;99.90;;;;;;5063043;28;20454;-71
2021/04/18 05:41:29;;;;;;;9.50;5.20;;;7.90;99.90;;;;;;5058007;28;20447;-71
2021/04/18 05:44:14;;;;;;;12.37;4.40;;;7.80;99.90;;;;;;5058361;28;20537;-72
2021/04/18 05:47:00;;;;;;;8.23;4.40;;;7.80;99.90;;;;;;5065534;28;20518;-71
2021/04/18 05:49:45;;;;;;;10.77;5.00;;;7.90;99.90;;;;;;5062754;28;20445;-70
2021/04/18 05:52:30;;;;;;;10.37;4.83;;;8.00;99.90;;;;;;5063796;28;20551;-72
2021/04/18 05:55:15;;;;;;;8.83;5.33;;;8.00;99.90;;;;;;5055219;28;20500;-70
2021/04/18 05:58:00;;;;;;;10.07;5.70;;;8.10;99.90;;;;;;5063882;28;20496;-71
2021/04/18 06:00:45;;;;;;;9.03;5.33;;;8.20;99.90;;;;;;5061954;28;20901;-72
2021/04/18 06:03:31;;;;;;;9.67;5.43;;;8.20;99.90;;;;;;5064922;28;20508;-71
2021/04/18 06:06:16;;;;;;;10.43;5.60;;;8.30;99.90;;;;;;5063354;28;20425;-71
2021/04/18 06:09:01;;;;;;;11.43;5.53;;;8.30;99.90;;;;;;5061351;28;20541;-72
2021/04/18 06:11:46;;;;;;;8.00;5.27;;;8.30;99.90;;;;;;5060944;28;20534;-70
2021/04/18 06:14:31;;;;;;;7.33;5.37;;;8.30;99.90;;;;;;5058037;28;20559;-72
2021/04/18 06:17:17;;;;;;;6.83;5.37;;;8.30;99.90;;;;;;5069349;28;20454;-71
2021/04/18 06:20:04;;;;;;;10.90;4.97;;;8.20;99.90;;;;;;5061572;28;20444;-71
2021/04/18 06:22:50;;;;;;;9.43;5.87;;;8.30;99.90;;;;;;5060995;28;20486;-72
2021/04/18 06:25:35;;;;;;;9.53;6.27;;;8.30;99.90;;;;;;5060392;28;20495;-71
2021/04/18 06:28:21;;;;;;;10.27;6.27;;;8.30;99.90;;;;;;5065729;28;20506;-71
2021/04/18 06:31:06;;;;;;;16.70;6.37;;;8.40;99.90;;;;;;5064569;28;20438;-71
2021/04/18 06:33:51;;;;;;;10.83;5.53;;;8.60;99.90;;;;;;5061486;28;20444;-71
2021/04/18 06:36:37;;;;;;;10.13;6.70;;;8.60;99.90;;;;;;5058833;28;20807;-72
2021/04/18 06:39:22;;;;;;;7.87;5.90;;;8.70;99.90;;;;;;5062570;28;20527;-71
2021/04/18 06:42:11;;;;;;;9.33;5.93;;;8.90;99.90;;;;;;5065033;28;20525;-70
2021/04/18 06:44:57;;;;;;;9.00;5.80;;;9.10;99.90;;;;;;5065554;28;20441;-70
2021/04/18 06:47:42;;;;;;;8.20;6.10;;;9.20;99.90;;;;;;5055827;28;20453;-72
2021/04/18 06:50:28;;;;;;;12.57;6.20;;;9.30;99.90;;;;;;5062306;28;20508;-71
2021/04/18 06:53:14;;;;;;;10.67;7.00;;;9.30;99.90;;;;;;5064791;28;20446;-72
2021/04/18 06:56:03;;;;;;;7.40;5.80;;;9.30;99.90;;;;;;5064566;28;20484;-72
2021/04/18 06:58:48;;;;;;;10.67;6.27;;;9.40;99.90;;;;;;5058844;28;20519;-72
2021/04/18 07:01:35;;;;;;;8.93;6.27;;;9.50;99.90;;;;;;5064909;28;20791;-73
2021/04/18 07:04:21;;;;;;;8.70;6.47;;;9.40;99.90;;;;;;5064293;28;20504;-73
2021/04/18 07:07:06;;;;;;;16.50;6.57;;;9.40;99.90;;;;;;5062354;28;20508;-71
2021/04/18 07:09:54;;;;;;;18.73;8.13;;;9.20;99.90;;;;;;5065799;28;20485;-72
2021/04/18 07:12:38;;;;;;;11.33;7.27;;;9.30;99.90;;;;;;5065514;28;20480;-72
2021/04/18 07:15:39;;;;;;;14.50;8.43;;;9.30;99.90;;;;;;5060659;28;20573;-72
2021/04/18 07:18:40;;;;;;;11.77;6.90;;;9.30;99.90;;;;;;5067157;28;21002;-72
2021/04/18 07:21:44;;;;;;;13.23;7.90;;;9.40;99.90;;;;;;5063979;28;20412;-70
2021/04/18 07:24:30;;;;;;;12.77;7.80;;;9.30;99.90;;;;;;5056269;28;20473;-71
2021/04/18 07:27:17;;;;;;;16.07;7.73;;;9.30;99.90;;;;;;5058686;28;20483;-71
2021/04/18 07:30:02;;;;;;;9.50;7.47;;;9.30;99.90;;;;;;5065043;28;20480;-71
2021/04/18 07:33:01;;;;;;;15.90;7.70;;;9.50;99.90;;;;;;5069340;28;20420;-71
2021/04/18 07:35:46;;;;;;;8.50;6.30;;;9.60;99.90;;;;;;5061394;28;20538;-70
2021/04/18 07:38:31;;;;;;;10.27;6.70;;;9.70;99.90;;;;;;5061395;28;20581;-71
2021/04/18 07:41:18;;;;;;;15.33;11.17;;;9.70;99.90;;;;;;5065917;28;20433;-71
2021/04/18 07:44:07;;;;;;;31.47;21.00;;;9.40;99.90;;;;;;5064643;28;20954;-71
2021/04/18 07:46:54;;;;;;;18.70;12.10;;;9.30;99.90;;;;;;5056344;28;20433;-70
2021/04/18 07:49:39;;;;;;;10.60;7.30;;;9.40;99.90;;;;;;5057907;28;20486;-71
2021/04/18 07:52:25;;;;;;;19.93;7.00;;;9.50;99.90;;;;;;5053825;28;20466;-71
2021/04/18 07:55:11;;;;;;;9.90;7.70;;;9.50;99.90;;;;;;5064629;28;20440;-71
2021/04/18 07:57:57;;;;;;;9.30;6.93;;;9.60;99.90;;;;;;5060154;28;20870;-71
2021/04/18 08:00:43;;;;;;;16.60;7.30;;;9.80;99.90;;;;;;5059823;28;20413;-73
2021/04/18 08:03:28;;;;;;;12.87;7.30;;;9.80;99.90;;;;;;5061641;28;21066;-73
2021/04/18 08:06:13;;;;;;;16.53;8.33;;;9.90;99.90;;;;;;5063388;28;21010;-72
2021/04/18 08:08:59;;;;;;;9.97;6.90;;;10.00;99.90;;;;;;5063685;28;20504;-72
2021/04/18 08:12:07;;;;;;;15.03;9.43;;;10.00;99.90;;;;;;5061230;28;20476;-72
2021/04/18 08:15:13;;;;;;;17.10;12.13;;;10.10;99.60;;;;;;5055570;28;20557;-72
2021/04/18 08:18:12;;;;;;;13.90;10.00;;;10.20;96.80;;;;;;5062278;28;20470;-71
2021/04/18 08:20:58;;;;;;;13.60;8.80;;;10.30;94.90;;;;;;5057301;28;20540;-72
2021/04/18 08:23:43;;;;;;;12.77;9.00;;;10.40;93.50;;;;;;5060102;28;20505;-72
2021/04/18 08:26:31;;;;;;;21.23;12.53;;;10.50;93.70;;;;;;5059185;28;20436;-72
2021/04/18 08:29:15;;;;;;;19.93;11.00;;;10.50;93.30;;;;;;5059162;28;20490;-71
2021/04/18 08:32:08;;;;;;;15.63;10.57;;;10.50;92.90;;;;;;5058429;28;20451;-71
2021/04/18 08:35:11;;;;;;;13.80;9.13;;;10.60;92.30;;;;;;5056202;28;20536;-73
2021/04/18 08:38:19;;;;;;;16.13;9.63;;;10.60;93.10;;;;;;5063148;28;20420;-72
2021/04/18 08:41:05;;;;;;;18.83;9.50;;;10.70;92.40;;;;;;5063370;28;20489;-72
2021/04/18 08:44:14;;;;;;;12.47;8.90;;;10.80;91.40;;;;;;5064124;28;20518;-73
2021/04/18 08:47:02;;;;;;;15.63;8.90;;;10.80;91.80;;;;;;5061962;28;20447;-73
2021/04/18 08:49:49;;;;;;;15.70;8.40;;;10.90;92.10;;;;;;5066506;28;20522;-72
2021/04/18 08:52:37;;;;;;;16.27;9.20;;;11.00;91.50;;;;;;5066706;28;20442;-72
2021/04/18 08:55:22;;;;;;;11.33;8.23;;;11.00;90.20;;;;;;5061544;28;20440;-71
2021/04/18 08:58:07;;;;;;;19.13;10.27;;;11.00;86.50;;;;;;5060244;28;20486;-72
2021/04/18 09:00:53;;;;;;;16.60;10.33;;;11.00;88.40;;;;;;5057986;28;20839;-72
2021/04/18 09:03:39;;;;;;;14.23;9.10;;;11.00;89.20;;;;;;5062999;28;20475;-72
2021/04/18 09:06:32;;;;;;;16.00;10.17;;;10.90;88.80;;;;;;5058245;28;20840;-71
2021/04/18 09:09:19;;;;;;;17.77;10.50;;;10.80;89.60;;;;;;5053933;28;20497;-71
2021/04/18 09:12:05;;;;;;;15.77;10.50;;;10.70;88.90;;;;;;5068059;28;20794;-72
2021/04/18 09:14:50;;;;;;;18.90;10.43;;;10.70;90.30;;;;;;5062619;28;20432;-72
2021/04/18 09:17:38;;;;;;;13.60;9.20;;;10.70;90.10;;;;;;5058508;28;20417;-72
2021/04/18 09:20:23;;;;;;;16.50;9.27;;;10.80;90.30;;;;;;5061503;28;20409;-73
2021/04/18 09:23:09;;;;;;;17.50;9.70;;;10.80;90.70;;;;;;5058280;28;20474;-73
2021/04/18 09:26:12;;;;;;;14.27;8.90;;;10.70;91.70;;;;;;5063191;28;20452;-71
2021/04/18 09:29:11;;;;;;;13.10;8.90;;;10.70;91.40;;;;;;5061713;28;20507;-71
2021/04/18 09:31:59;;;;;;;15.90;9.70;;;10.70;93.30;;;;;;5055626;28;20462;-72
2021/04/18 09:34:45;;;;;;;15.10;8.23;;;10.70;94.20;;;;;;5062643;28;20511;-72
2021/04/18 09:37:32;;;;;;;12.93;9.00;;;10.70;95.20;;;;;;5063081;28;20429;-73
2021/04/18 09:40:19;;;;;;;15.60;8.97;;;10.70;94.70;;;;;;5062867;28;20451;-72
2021/04/18 09:43:07;;;;;;;13.53;9.50;;;10.80;94.60;;;;;;5067048;28;20426;-72
2021/04/18 09:45:59;;;;;;;16.27;9.07;;;10.90;94.20;;;;;;5058350;28;20953;-73
2021/04/18 09:48:57;;;;;;;15.17;9.80;;;11.00;93.60;;;;;;5064259;28;20478;-72
2021/04/18 09:51:58;;;;;;;16.20;10.80;;;11.00;93.10;;;;;;5064467;28;20417;-72
2021/04/18 09:54:43;;;;;;;15.07;9.97;;;11.10;93.30;;;;;;5061174;28;20444;-72
2021/04/18 09:57:28;;;;;;;16.47;9.07;;;11.10;92.90;;;;;;5056992;28;20465;-72
2021/04/18 10:00:24;;;;;;;12.87;8.90;;;11.20;91.90;;;;;;5055936;28;20539;-72
2021/04/18 10:03:11;;;;;;;18.00;9.10;;;11.30;91.90;;;;;;5060571;28;20539;-73
2021/04/18 10:05:58;;;;;;;15.60;10.30;;;11.40;92.30;;;;;;5066268;28;20524;-71
2021/04/18 10:08:54;;;;;;;13.43;8.37;;;11.50;92.30;;;;;;5060379;28;20805;-72
2021/04/18 10:11:40;;;;;;;18.30;9.87;;;11.60;91.70;;;;;;5065540;28;20538;-71
2021/04/18 10:14:25;;;;;;;14.93;9.87;;;11.70;91.40;;;;;;5056830;28;20432;-73
2021/04/18 10:17:11;;;;;;;20.03;9.80;;;11.70;90.80;;;;;;5067365;28;20850;-72
2021/04/18 10:19:56;;;;;;;16.97;10.00;;;11.80;91.10;;;;;;5063497;28;20944;-72
2021/04/18 10:23:06;;;;;;;17.33;11.00;;;11.90;91.50;;;;;;5057154;28;20456;-73
2021/04/18 10:25:51;;;;;;;15.90;10.23;;;12.00;91.40;;;;;;5067538;28;20449;-71
2021/04/18 10:28:36;;;;;;;14.13;9.50;;;11.90;91.00;;;;;;5060597;28;20483;-71
2021/04/18 10:31:25;;;;;;;15.70;10.80;;;12.10;91.30;;;;;;5055679;28;20785;-71
2021/04/18 10:34:12;;;;;;;19.83;11.40;;;12.20;90.30;;;;;;5059941;28;20462;-72
2021/04/18 10:36:58;;;;;;;16.80;10.37;;;12.20;87.40;;;;;;5065063;28;20446;-73
2021/04/18 10:39:43;;;;;;;14.67;9.90;;;12.30;89.70;;;;;;5060778;28;20451;-72
2021/04/18 10:42:28;;;;;;;22.70;9.80;;;12.30;89.00;;;;;;5063370;28;21107;-73
2021/04/18 10:45:15;;;;;;;16.87;9.73;;;12.30;85.40;;;;;;5060939;28;20493;-73
2021/04/18 10:48:00;;;;;;;13.97;11.03;;;12.40;86.70;;;;;;5065559;28;20534;-74
2021/04/18 10:50:47;;;;;;;20.30;11.20;;;12.50;87.10;;;;;;5063176;28;20828;-72
2021/04/18 10:53:32;;;;;;;15.60;10.23;;;12.60;86.00;;;;;;5057176;28;20446;-72
2021/04/18 10:56:17;;;;;;;16.47;11.00;;;12.60;86.10;;;;;;5056097;28;20811;-73
2021/04/18 10:59:02;;;;;;;21.27;10.93;;;12.60;84.80;;;;;;5066145;28;20466;-73
2021/04/18 11:01:48;;;;;;;21.60;10.40;;;12.50;85.90;;;;;;5060108;28;20412;-71
2021/04/18 11:04:33;;;;;;;17.27;10.73;;;12.50;85.80;;;;;;5061240;28;20440;-72
2021/04/18 11:07:19;;;;;;;24.67;12.10;;;12.40;86.20;;;;;;5061489;28;20973;-71
2021/04/18 11:10:05;;;;;;;19.60;11.03;;;12.40;85.40;;;;;;5058099;28;20966;-73
2021/04/18 11:12:50;;;;;;;20.67;12.40;;;12.30;86.60;;;;;;5063826;28;20424;-72
2021/04/18 11:15:35;;;;;;;15.33;10.90;;;12.20;87.80;;;;;;5061023;28;20455;-72
2021/04/18 11:18:20;;;;;;;17.67;10.83;;;12.10;87.00;;;;;;5067552;28;20524;-71
2021/04/18 11:21:05;;;;;;;13.90;10.63;;;12.00;88.00;;;;;;5067211;28;20436;-72
2021/04/18 11:23:53;;;;;;;16.00;10.80;;;12.00;86.40;;;;;;5057049;28;20455;-72
2021/04/18 11:26:38;;;;;;;16.03;11.77;;;12.00;87.90;;;;;;5061187;28;20416;-71
2021/04/18 11:29:23;;;;;;;16.20;12.47;;;12.00;90.10;;;;;;5058226;28;21003;-72
2021/04/18 11:32:08;;;;;;;17.93;12.10;;;11.90;93.50;;;;;;5062054;28;20450;-72
2021/04/18 11:34:55;;;;;;;19.03;12.23;;;11.90;93.90;;;;;;5063140;28;20474;-72
2021/04/18 11:37:40;;;;;;;19.67;13.20;;;11.80;94.70;;;;;;5064784;28;21001;-73
2021/04/18 11:40:26;;;;;;;19.60;13.50;;;11.80;95.90;;;;;;5065728;28;20417;-71
2021/04/18 11:43:12;;;;;;;20.07;14.13;;;11.80;95.90;;;;;;5066938;28;20471;-72
2021/04/18 11:45:58;;;;;;;17.23;11.97;;;11.70;96.00;;;;;;5062820;28;20422;-72
2021/04/18 11:48:43;;;;;;;22.93;13.80;;;11.70;97.50;;;;;;5058563;28;20500;-73
2021/04/18 11:51:29;;;;;;;19.50;12.97;;;11.70;98.20;;;;;;5059980;28;20417;-73
2021/04/18 11:54:14;;;;;;;18.10;12.97;;;11.70;98.60;;;;;;5059903;28;20466;-72
2021/04/18 11:57:00;;;;;;;19.50;13.57;;;11.70;98.70;;;;;;5063989;28;20417;-72
2021/04/18 11:59:45;;;;;;;18.30;13.87;;;11.70;98.50;;;;;;5058312;28;20470;-71
2021/04/18 12:02:30;;;;;;;19.23;12.63;;;11.70;98.80;;;;;;5058879;28;20454;-70
2021/04/18 12:05:16;;;;;;;25.43;13.50;;;11.70;99.30;;;;;;5060400;28;20585;-72
2021/04/18 12:08:01;;;;;;;19.70;13.40;;;11.70;99.90;;;;;;5064426;28;20456;-75
2021/04/18 12:10:46;;;;;;;19.00;12.80;;;11.70;99.90;;;;;;5056278;28;20811;-73
2021/04/18 12:13:32;;;;;;;19.23;13.13;;;11.70;99.90;;;;;;5058107;28;20446;-71
2021/04/18 12:16:18;;;;;;;22.20;14.37;;;11.70;99.90;;;;;;5065447;28;20521;-73
2021/04/18 12:19:03;;;;;;;20.40;14.40;;;11.70;99.90;;;;;;5063562;28;20482;-72
2021/04/18 12:21:48;;;;;;;19.87;13.20;;;11.70;99.90;;;;;;5060067;28;20443;-72
2021/04/18 12:24:32;;;;;;;23.07;13.30;;;11.70;99.90;;;;;;5061558;28;20567;-72
2021/04/18 12:27:17;;;;;;;19.93;12.27;;;11.60;99.90;;;;;;5057868;28;20417;-72
2021/04/18 12:30:06;;;;;;;15.93;12.87;;;11.60;99.90;;;;;;5060957;28;20494;-72
2021/04/18 12:32:51;;;;;;;20.30;14.30;;;11.70;99.90;;;;;;5060767;28;20500;-72
2021/04/18 12:35:36;;;;;;;18.33;13.60;;;11.60;99.90;;;;;;5061699;28;20466;-71
2021/04/18 12:38:21;;;;;;;24.77;13.87;;;11.70;99.90;;;;;;5060197;28;20425;-71
2021/04/18 12:41:06;;;;;;;16.50;13.10;;;11.60;99.90;;;;;;5062275;28;20537;-72
2021/04/18 12:43:52;;;;;;;17.47;13.40;;;11.60;99.90;;;;;;5059959;28;20446;-72
2021/04/18 12:46:38;;;;;;;15.60;12.30;;;11.70;99.90;;;;;;5056264;28;20517;-72
2021/04/18 12:49:23;;;;;;;16.40;12.20;;;11.70;99.90;;;;;;5055746;28;20482;-72
2021/04/18 12:52:08;;;;;;;20.53;12.53;;;11.70;99.90;;;;;;5056204;28;21381;-72
2021/04/18 12:54:53;;;;;;;18.87;12.93;;;11.70;99.90;;;;;;5061523;28;20449;-74
2021/04/18 12:57:38;;;;;;;16.10;12.80;;;11.70;99.90;;;;;;5062777;28;20454;-73
2021/04/18 13:00:25;;;;;;;20.87;13.20;;;11.70;99.90;;;;;;5058838;28;20434;-71
2021/04/18 13:03:11;;;;;;;20.77;13.13;;;11.80;99.90;;;;;;5058422;28;20446;-72
2021/04/18 13:05:56;;;;;;;21.10;13.13;;;11.90;99.90;;;;;;5055774;28;20482;-72
2021/04/18 13:08:41;;;;;;;19.90;12.10;;;11.90;99.90;;;;;;5060428;28;20467;-72
2021/04/18 13:11:27;;;;;;;19.50;12.70;;;12.00;99.90;;;;;;5055777;28;20443;-70
2021/04/18 13:14:12;;;;;;;17.33;12.60;;;12.10;99.90;;;;;;5064725;28;20440;-72
2021/04/18 13:16:57;;;;;;;17.83;11.47;;;12.10;99.90;;;;;;5063329;28;20539;-70
2021/04/18 13:19:43;;;;;;;21.40;12.17;;;12.20;98.50;;;;;;5060948;28;20461;-73
2021/04/18 13:22:29;;;;;;;17.50;12.00;;;12.20;99.10;;;;;;5059441;28;20463;-71
2021/04/18 13:25:14;;;;;;;13.80;11.00;;;12.30;98.70;;;;;;5059444;28;20556;-72
2021/04/18 13:28:00;;;;;;;14.37;10.30;;;12.40;98.90;;;;;;5064970;28;20412;-73
2021/04/18 13:30:45;;;;;;;13.53;10.73;;;12.40;98.40;;;;;;5058739;28;20521;-71
2021/04/18 13:33:30;;;;;;;14.00;10.37;;;12.50;97.60;;;;;;5064899;28;20414;-72
2021/04/18 13:36:16;;;;;;;15.50;10.70;;;12.50;97.10;;;;;;5062009;28;20491;-72
2021/04/18 13:39:01;;;;;;;17.90;11.03;;;12.50;96.60;;;;;;5071054;28;20636;-71
2021/04/18 13:41:46;;;;;;;12.73;10.43;;;12.50;96.20;;;;;;5068246;28;20588;-72
2021/04/18 13:44:31;;;;;;;15.40;11.37;;;12.30;96.60;;;;;;5063425;28;20462;-70
2021/04/18 13:47:17;;;;;;;16.83;11.07;;;12.40;98.10;;;;;;5061268;28;20413;-72
2021/04/18 13:50:02;;;;;;;14.60;9.90;;;12.50;97.90;;;;;;5072026;28;20484;-73
2021/04/18 13:52:49;;;;;;;16.07;11.10;;;12.50;97.80;;;;;;5060572;28;20417;-72
2021/04/18 13:55:34;;;;;;;16.17;11.73;;;12.50;97.10;;;;;;5061136;28;20503;-70
2021/04/18 13:58:19;;;;;;;11.23;9.43;;;12.60;97.50;;;;;;5064051;28;21030;-72
2021/04/18 14:01:04;;;;;;;16.23;11.20;;;12.50;96.60;;;;;;5058704;28;20417;-72
2021/04/18 14:03:50;;;;;;;17.37;11.77;;;12.50;96.00;;;;;;5058533;28;20945;-70
2021/04/18 14:06:35;;;;;;;17.13;11.53;;;12.60;97.30;;;;;;5062443;28;20421;-73
2021/04/18 14:09:21;;;;;;;13.60;11.13;;;12.50;97.20;;;;;;5066243;28;20458;-72
2021/04/18 14:12:07;;;;;;;13.17;9.47;;;12.60;96.60;;;;;;5061927;28;20454;-72
2021/04/18 14:14:52;;;;;;;14.60;10.30;;;12.70;95.90;;;;;;5069935;28;20516;-73
2021/04/18 14:17:37;;;;;;;15.00;11.27;;;12.70;96.10;;;;;;5061902;28;20413;-72
2021/04/18 14:20:23;;;;;;;15.60;11.03;;;12.70;96.20;;;;;;5067631;28;20535;-72
2021/04/18 14:23:08;;;;;;;13.53;10.50;;;12.70;95.50;;;;;;5065116;28;20493;-73